Time;durP1;ratioP1;P1;durP2;ratioP2;P2;SDS_P1;SDS_P2;PMS_P1;PMS_P2;Temp;Humidity;BMP_temperature;BMP_pressure;BME280_temperature;BME280_humidity;BME280_pressure;Samples;Min_cycle;Max_cycle;Signal;HPM_P1;HPM_P2
2022/02/22 00:00:52;;;;;;;32.90;5.18;;;5.80;99.90;;;;;;5048143;28;20037;-95
2022/02/22 00:03:17;;;;;;;45.15;6.57;;;5.80;99.90;;;;;;5044285;28;20053;-94
2022/02/22 00:05:43;;;;;;;24.52;4.70;;;5.70;99.90;;;;;;5043475;28;20037;-95
2022/02/22 00:08:09;;;;;;;34.60;5.22;;;5.70;99.90;;;;;;5038660;28;20033;-95
2022/02/22 00:10:37;;;;;;;23.42;4.70;;;5.70;99.90;;;;;;5036292;28;20048;-95
2022/02/22 00:13:02;;;;;;;31.02;5.30;;;5.60;99.90;;;;;;5036613;28;20439;-92
2022/02/22 00:15:28;;;;;;;27.52;3.72;;;5.60;99.90;;;;;;5036530;28;20120;-94
2022/02/22 00:17:54;;;;;;;29.70;3.95;;;5.70;99.90;;;;;;5035915;28;20034;-94
2022/02/22 00:20:20;;;;;;;29.80;3.60;;;5.60;99.90;;;;;;5030856;28;20080;-94
2022/02/22 00:22:45;;;;;;;14.55;3.42;;;5.60;99.90;;;;;;5025543;28;20168;-93
2022/02/22 00:25:12;;;;;;;22.50;5.38;;;5.50;99.90;;;;;;5026158;28;20109;-93
2022/02/22 00:27:43;;;;;;;23.77;3.75;;;5.50;99.90;;;;;;5025451;28;20026;-94
2022/02/22 00:30:12;;;;;;;31.75;4.53;;;5.50;99.90;;;;;;5030337;28;20029;-96
2022/02/22 00:32:41;;;;;;;30.05;4.07;;;5.40;99.90;;;;;;5027273;28;20053;-94
2022/02/22 00:35:09;;;;;;;22.42;3.60;;;5.40;99.90;;;;;;5027041;28;20495;-95
2022/02/22 00:37:35;;;;;;;27.20;4.55;;;5.30;99.90;;;;;;5025758;28;20036;-94
2022/02/22 00:40:01;;;;;;;33.70;3.97;;;5.30;99.90;;;;;;5028762;28;20025;-94
2022/02/22 00:42:26;;;;;;;18.67;4.90;;;5.20;99.90;;;;;;5028874;28;20045;-95
2022/02/22 00:44:53;;;;;;;40.67;4.90;;;5.20;99.90;;;;;;5025141;28;20021;-94
2022/02/22 00:47:19;;;;;;;29.13;4.15;;;5.20;99.90;;;;;;5027015;28;20249;-95
2022/02/22 00:49:45;;;;;;;25.83;3.78;;;5.20;99.90;;;;;;5025214;28;20025;-95
2022/02/22 00:52:11;;;;;;;30.63;4.18;;;5.10;99.90;;;;;;5026390;28;20105;-95
2022/02/22 00:54:36;;;;;;;21.98;4.05;;;5.10;99.90;;;;;;5027479;28;20022;-95
2022/02/22 00:57:03;;;;;;;28.77;4.65;;;5.10;99.90;;;;;;5025923;28;20026;-94
2022/02/22 00:59:29;;;;;;;25.85;4.32;;;5.10;99.90;;;;;;5025910;28;20034;-94
2022/02/22 01:01:55;;;;;;;24.60;3.88;;;5.00;99.90;;;;;;5023435;28;20083;-95
2022/02/22 01:04:21;;;;;;;16.83;3.28;;;5.10;99.90;;;;;;5023674;28;20034;-95
2022/02/22 01:06:47;;;;;;;21.70;3.28;;;5.00;99.90;;;;;;5025659;28;20018;-94
2022/02/22 01:09:14;;;;;;;33.00;3.80;;;5.00;99.90;;;;;;5026974;28;20037;-95
2022/02/22 01:11:40;;;;;;;25.85;3.40;;;5.00;99.90;;;;;;5024516;28;20030;-96
2022/02/22 01:14:06;;;;;;;22.65;4.40;;;5.00;99.90;;;;;;5026798;28;20014;-96
2022/02/22 01:16:32;;;;;;;34.90;5.18;;;5.00;99.90;;;;;;5025731;28;20422;-96
2022/02/22 01:18:57;;;;;;;32.60;4.07;;;5.10;99.90;;;;;;5023934;28;20475;-96
2022/02/22 01:21:24;;;;;;;24.90;4.03;;;5.10;99.90;;;;;;5025056;28;20032;-95
2022/02/22 01:23:50;;;;;;;23.70;3.70;;;5.10;99.90;;;;;;5027532;28;20050;-94
2022/02/22 01:26:16;;;;;;;31.73;5.72;;;5.10;99.90;;;;;;5027356;28;20026;-94
2022/02/22 01:28:41;;;;;;;23.05;4.65;;;5.10;99.90;;;;;;5028708;28;20025;-94
2022/02/22 01:31:07;;;;;;;31.10;3.95;;;5.10;99.90;;;;;;5033690;28;20049;-95
2022/02/22 01:33:33;;;;;;;44.15;6.75;;;5.10;99.90;;;;;;5028603;28;20132;-95
2022/02/22 01:35:58;;;;;;;25.17;3.78;;;5.10;99.90;;;;;;5032504;28;20028;-96
2022/02/22 01:38:24;;;;;;;32.35;4.20;;;5.10;99.90;;;;;;5028351;28;20390;-94
2022/02/22 01:40:55;;;;;;;35.17;6.50;;;5.10;99.90;;;;;;5027679;28;20056;-94
2022/02/22 01:43:21;;;;;;;40.40;4.75;;;5.10;99.90;;;;;;5027125;28;20033;-95
2022/02/22 01:45:47;;;;;;;32.13;4.25;;;5.10;99.90;;;;;;5028108;28;20025;-95
2022/02/22 01:48:13;;;;;;;37.25;5.03;;;5.00;99.90;;;;;;5027262;28;20034;-95
2022/02/22 01:50:38;;;;;;;38.50;5.35;;;5.10;99.90;;;;;;5029947;28;20021;-95
2022/02/22 01:53:04;;;;;;;27.90;4.90;;;5.10;99.90;;;;;;5029778;28;20430;-95
2022/02/22 01:55:32;;;;;;;40.35;4.53;;;5.10;99.90;;;;;;5023766;28;20025;-96
2022/02/22 01:57:58;;;;;;;35.08;6.13;;;5.20;99.90;;;;;;5026299;28;20018;-95
2022/02/22 02:00:27;;;;;;;51.05;6.18;;;5.20;99.90;;;;;;5026553;28;20027;-94
2022/02/22 02:02:55;;;;;;;28.90;4.07;;;5.20;99.90;;;;;;5027003;28;20040;-95
2022/02/22 02:05:21;;;;;;;36.90;5.55;;;5.20;99.90;;;;;;5026847;28;20033;-94
2022/02/22 02:07:46;;;;;;;35.40;4.72;;;5.30;99.90;;;;;;5023898;28;20409;-93
2022/02/22 02:10:12;;;;;;;31.17;4.15;;;5.30;99.90;;;;;;5028121;28;20059;-95
2022/02/22 02:12:39;;;;;;;41.15;4.47;;;5.30;99.90;;;;;;5025970;28;20029;-95
2022/02/22 02:15:06;;;;;;;38.55;5.30;;;5.30;99.90;;;;;;5024712;28;20040;-95
2022/02/22 02:17:34;;;;;;;38.55;4.70;;;5.40;99.90;;;;;;5030340;28;20040;-94
2022/02/22 02:20:02;;;;;;;31.42;4.53;;;5.40;99.90;;;;;;5025322;28;20021;-94
2022/02/22 02:22:28;;;;;;;31.60;4.22;;;5.40;99.90;;;;;;5025813;28;20174;-95
2022/02/22 02:24:53;;;;;;;39.33;5.63;;;5.30;99.90;;;;;;5026855;28;20091;-94
2022/02/22 02:27:19;;;;;;;33.70;4.47;;;5.30;99.90;;;;;;5042831;28;20029;-94
2022/02/22 02:29:45;;;;;;;23.92;4.18;;;5.30;99.90;;;;;;5025936;28;20048;-93
2022/02/22 02:32:11;;;;;;;29.30;4.50;;;5.30;99.90;;;;;;5026648;28;20045;-95
2022/02/22 02:34:37;;;;;;;26.77;4.10;;;5.30;99.90;;;;;;5024514;28;20032;-94
2022/02/22 02:37:03;;;;;;;33.17;3.88;;;5.30;99.90;;;;;;5027586;28;20075;-95
2022/02/22 02:39:28;;;;;;;26.90;4.68;;;5.30;99.90;;;;;;5030638;28;20492;-95
2022/02/22 02:41:54;;;;;;;23.10;5.00;;;5.40;99.90;;;;;;5032559;28;20500;-95
2022/02/22 02:44:22;;;;;;;32.53;5.18;;;5.40;99.90;;;;;;5025125;28;20070;-96
2022/02/22 02:46:48;;;;;;;26.05;3.88;;;5.40;99.90;;;;;;5026815;28;20022;-95
2022/02/22 02:49:16;;;;;;;28.50;4.60;;;5.40;99.90;;;;;;5025049;28;20024;-95
2022/02/22 02:51:42;;;;;;;49.53;6.38;;;5.40;99.90;;;;;;5027962;28;20024;-96
2022/02/22 02:54:08;;;;;;;26.52;4.32;;;5.40;99.90;;;;;;5024777;28;20035;-95
2022/02/22 02:56:35;;;;;;;32.67;5.38;;;5.50;99.90;;;;;;5027128;28;20116;-95
2022/02/22 02:59:03;;;;;;;29.63;3.83;;;5.50;99.90;;;;;;5027501;28;20025;-95
2022/02/22 03:01:31;;;;;;;40.17;5.80;;;5.50;99.90;;;;;;5027928;28;20025;-95
2022/02/22 03:03:57;;;;;;;25.05;4.40;;;5.60;99.90;;;;;;5030555;28;20055;-96
2022/02/22 03:06:23;;;;;;;30.77;4.65;;;5.60;99.90;;;;;;5039651;28;20089;-93
2022/02/22 03:08:49;;;;;;;39.17;5.20;;;5.60;99.90;;;;;;5041600;28;20097;-94
2022/02/22 03:11:15;;;;;;;24.83;3.78;;;5.60;99.90;;;;;;5037223;28;20029;-94
2022/02/22 03:13:41;;;;;;;24.83;3.65;;;5.60;99.90;;;;;;5035788;28;20303;-95
2022/02/22 03:16:08;;;;;;;39.78;5.53;;;5.60;99.90;;;;;;5035613;28;20021;-95
2022/02/22 03:18:35;;;;;;;39.40;4.10;;;5.70;99.90;;;;;;5031802;28;20047;-95
2022/02/22 03:21:01;;;;;;;35.15;4.53;;;5.70;99.90;;;;;;5028113;28;20030;-94
2022/02/22 03:23:27;;;;;;;23.67;3.00;;;5.70;99.90;;;;;;5027509;28;20045;-96
2022/02/22 03:25:53;;;;;;;39.70;4.90;;;5.70;99.90;;;;;;5025428;28;20025;-95
2022/02/22 03:28:19;;;;;;;32.38;5.22;;;5.70;99.90;;;;;;5028639;28;20055;-95
2022/02/22 03:30:46;;;;;;;29.23;3.83;;;5.70;99.90;;;;;;5026906;28;20025;-95
2022/02/22 03:33:12;;;;;;;34.28;4.90;;;5.80;99.90;;;;;;5029086;28;20065;-95
2022/02/22 03:35:39;;;;;;;25.17;3.92;;;5.80;99.90;;;;;;5027222;28;20029;-95
2022/02/22 03:38:05;;;;;;;32.20;4.70;;;5.80;99.90;;;;;;5025001;28;20017;-94
2022/02/22 03:40:31;;;;;;;15.95;3.10;;;5.80;99.90;;;;;;5029808;28;20021;-95
2022/02/22 03:42:57;;;;;;;26.52;4.53;;;5.80;99.90;;;;;;5026176;28;20079;-95
2022/02/22 03:45:23;;;;;;;30.80;5.28;;;5.80;99.90;;;;;;5027652;28;20020;-95
2022/02/22 03:47:49;;;;;;;43.40;3.97;;;5.80;99.90;;;;;;5030729;28;20029;-95
2022/02/22 03:50:16;;;;;;;23.55;5.10;;;5.80;99.90;;;;;;5028531;28;20406;-95
2022/02/22 03:52:43;;;;;;;20.00;3.30;;;5.90;99.90;;;;;;5030046;28;20086;-93
2022/02/22 03:55:09;;;;;;;24.77;3.40;;;5.90;99.90;;;;;;5030966;28;20029;-94
2022/02/22 03:57:35;;;;;;;30.83;6.60;;;5.90;99.90;;;;;;5031640;28;20028;-95
2022/02/22 04:00:06;;;;;;;24.00;3.40;;;6.00;99.90;;;;;;5029615;28;20390;-95
2022/02/22 04:02:31;;;;;;;;;;;6.00;99.90;;;;;;5028567;28;20029;-94
2022/02/22 04:04:58;;;;;;;22.45;3.47;;;6.00;99.90;;;;;;5030708;28;19905;-93
2022/02/22 04:07:25;;;;;;;23.77;3.45;;;6.00;99.90;;;;;;5036875;28;20021;-95
2022/02/22 04:09:50;;;;;;;21.77;3.78;;;6.00;99.90;;;;;;5031264;28;20026;-95
2022/02/22 04:12:17;;;;;;;25.85;5.13;;;6.00;99.90;;;;;;5032325;28;20596;-95
2022/02/22 04:14:43;;;;;;;28.95;4.57;;;6.00;99.90;;;;;;5031150;28;20025;-94
2022/02/22 04:17:09;;;;;;;25.35;4.22;;;6.00;99.90;;;;;;5030638;28;20028;-94
2022/02/22 04:19:35;;;;;;;23.15;3.30;;;6.00;99.90;;;;;;5037358;28;20006;-94
2022/02/22 04:22:00;;;;;;;22.83;3.60;;;6.00;99.90;;;;;;5042613;28;20062;-94
2022/02/22 04:24:26;;;;;;;23.88;4.57;;;6.00;99.90;;;;;;5034715;28;20029;-95
2022/02/22 04:26:52;;;;;;;24.80;3.40;;;6.00;99.90;;;;;;5031147;28;20025;-95
2022/02/22 04:29:17;;;;;;;25.98;3.92;;;6.00;99.90;;;;;;5032287;28;20390;-95
2022/02/22 04:31:43;;;;;;;25.45;3.60;;;6.00;99.90;;;;;;5031415;28;20510;-94
2022/02/22 04:34:09;;;;;;;32.58;4.13;;;6.00;99.90;;;;;;5030576;28;20350;-95
2022/02/22 04:36:35;;;;;;;38.72;4.60;;;6.00;99.90;;;;;;5028578;28;20093;-95
2022/02/22 04:39:04;;;;;;;31.73;6.20;;;6.00;99.90;;;;;;5030049;28;20052;-94
2022/02/22 04:41:30;;;;;;;29.60;4.28;;;6.00;99.90;;;;;;5030959;28;20030;-95
2022/02/22 04:43:56;;;;;;;23.80;3.58;;;6.00;99.90;;;;;;5033386;28;20029;-94
2022/02/22 04:46:21;;;;;;;27.20;4.22;;;6.00;99.90;;;;;;5040423;28;20121;-95
2022/02/22 04:48:47;;;;;;;27.02;3.78;;;6.00;99.90;;;;;;5032876;28;20028;-95
2022/02/22 04:51:13;;;;;;;35.95;4.07;;;6.00;99.90;;;;;;5030971;28;20112;-95
2022/02/22 04:53:38;;;;;;;20.63;3.80;;;6.00;99.90;;;;;;5027983;28;20083;-96
2022/02/22 04:56:04;;;;;;;23.88;3.42;;;6.00;99.90;;;;;;5032461;28;20088;-95
2022/02/22 04:58:30;;;;;;;17.92;3.40;;;6.00;99.90;;;;;;5028266;28;20528;-96
2022/02/22 05:00:56;;;;;;;23.75;3.63;;;6.00;99.90;;;;;;5047734;28;20017;-95
2022/02/22 05:03:21;;;;;;;15.30;3.17;;;6.00;99.90;;;;;;5028067;28;20029;-94
2022/02/22 05:05:53;;;;;;;25.00;3.72;;;6.10;99.90;;;;;;5027671;28;20109;-95
2022/02/22 05:08:19;;;;;;;15.30;3.45;;;6.10;99.90;;;;;;5030553;28;20029;-95
2022/02/22 05:10:45;;;;;;;7.07;2.00;;;6.20;99.90;;;;;;5028266;28;20035;-95
2022/02/22 05:13:11;;;;;;;11.95;3.85;;;6.40;99.90;;;;;;5029214;28;20123;-95
2022/02/22 05:15:36;;;;;;;11.00;2.80;;;6.60;99.90;;;;;;5031318;28;20055;-94
2022/02/22 05:18:03;;;;;;;8.52;2.60;;;6.70;99.90;;;;;;5030066;28;20025;-94
2022/02/22 05:20:28;;;;;;;8.00;2.65;;;6.90;99.90;;;;;;5027002;28;20104;-93
2022/02/22 05:22:54;;;;;;;9.57;2.47;;;7.00;99.90;;;;;;5029970;28;20122;-95
2022/02/22 05:25:20;;;;;;;11.45;3.50;;;7.00;99.90;;;;;;5025618;28;20029;-96
2022/02/22 05:27:46;;;;;;;15.77;3.67;;;7.10;99.90;;;;;;5029133;28;20037;-93
2022/02/22 05:30:14;;;;;;;16.73;3.60;;;7.20;99.90;;;;;;5030779;28;20055;-93
2022/02/22 05:32:40;;;;;;;15.35;3.28;;;7.20;99.90;;;;;;5037425;28;20075;-94
2022/02/22 05:35:07;;;;;;;7.13;1.85;;;7.30;99.90;;;;;;5030383;28;20049;-94
2022/02/22 05:37:34;;;;;;;12.00;3.20;;;7.30;99.90;;;;;;5026819;28;20030;-96
2022/02/22 05:40:04;;;;;;;15.35;3.33;;;7.40;99.90;;;;;;5027463;28;20462;-95
2022/02/22 05:42:30;;;;;;;11.68;2.97;;;7.50;99.90;;;;;;5032157;28;20029;-95
2022/02/22 05:44:56;;;;;;;13.82;2.88;;;7.50;99.90;;;;;;5029058;28;20028;-95
2022/02/22 05:47:22;;;;;;;14.48;3.00;;;7.60;99.90;;;;;;5029133;28;20481;-94
2022/02/22 05:49:47;;;;;;;17.55;3.45;;;7.60;99.90;;;;;;5030050;28;20030;-95
2022/02/22 05:52:14;;;;;;;18.05;4.35;;;7.70;99.90;;;;;;5028333;28;20032;-94
2022/02/22 05:54:40;;;;;;;6.50;2.35;;;7.70;99.90;;;;;;5031783;28;20079;-94
2022/02/22 05:57:06;;;;;;;20.52;4.60;;;7.80;99.90;;;;;;5024709;28;20021;-94
2022/02/22 05:59:32;;;;;;;14.27;3.53;;;7.80;99.90;;;;;;5025909;28;20017;-94
2022/02/22 06:01:58;;;;;;;18.88;2.90;;;7.80;99.90;;;;;;5043465;28;20060;-95
2022/02/22 06:04:26;;;;;;;15.07;2.55;;;7.80;99.90;;;;;;5028780;28;20120;-95
2022/02/22 06:06:52;;;;;;;12.88;3.10;;;7.90;99.90;;;;;;5029248;28;20024;-93
2022/02/22 06:09:18;;;;;;;11.75;2.97;;;7.90;99.90;;;;;;5027233;28;20035;-94
2022/02/22 06:11:44;;;;;;;11.45;2.97;;;7.90;99.90;;;;;;5029206;28;20017;-93
2022/02/22 06:14:11;;;;;;;13.02;2.63;;;8.00;99.90;;;;;;5041420;28;20475;-93
2022/02/22 06:16:37;;;;;;;22.67;5.05;;;7.90;99.90;;;;;;5028905;28;20044;-94
2022/02/22 06:19:03;;;;;;;14.95;2.63;;;7.90;99.90;;;;;;5027677;28;20051;-93
2022/02/22 06:21:28;;;;;;;15.60;3.88;;;7.90;99.90;;;;;;5036585;28;20081;-92
2022/02/22 06:23:54;;;;;;;23.20;4.53;;;7.90;99.90;;;;;;5047073;28;20033;-94
2022/02/22 06:26:20;;;;;;;15.05;2.80;;;7.90;99.90;;;;;;5039290;28;20025;-93
2022/02/22 06:28:46;;;;;;;14.77;2.63;;;7.90;99.90;;;;;;5038157;28;20014;-93
2022/02/22 06:31:13;;;;;;;23.35;3.78;;;7.90;99.90;;;;;;5036552;28;20091;-93
2022/02/22 06:33:38;;;;;;;22.92;3.35;;;7.90;99.90;;;;;;5032845;28;20097;-93
2022/02/22 06:36:05;;;;;;;15.73;2.53;;;7.90;99.90;;;;;;5029458;28;20049;-92
2022/02/22 06:38:31;;;;;;;26.35;3.13;;;7.90;99.90;;;;;;5027599;28;20049;-94
2022/02/22 06:40:57;;;;;;;25.10;3.22;;;7.90;99.90;;;;;;5027722;28;20028;-93
2022/02/22 06:43:23;;;;;;;25.65;3.88;;;7.80;99.90;;;;;;5025416;28;20104;-93
2022/02/22 06:45:49;;;;;;;22.52;3.85;;;7.80;99.90;;;;;;5026263;28;20021;-94
2022/02/22 06:48:15;;;;;;;25.95;4.50;;;7.80;99.90;;;;;;5024596;28;20037;-93
2022/02/22 06:50:42;;;;;;;32.13;4.10;;;7.70;99.90;;;;;;5026853;28;20013;-94
2022/02/22 06:53:07;;;;;;;30.70;3.75;;;7.70;99.90;;;;;;5024492;28;20021;-93
2022/02/22 06:55:33;;;;;;;25.50;4.38;;;7.70;99.90;;;;;;5028039;28;20021;-94
2022/02/22 06:58:06;;;;;;;28.55;4.35;;;7.70;99.90;;;;;;5028296;28;20047;-94
2022/02/22 07:00:32;;;;;;;26.92;4.63;;;7.70;99.90;;;;;;5028204;28;20021;-95
2022/02/22 07:02:58;;;;;;;12.13;3.38;;;7.70;99.90;;;;;;5029248;28;20040;-94
2022/02/22 07:05:24;;;;;;;19.60;3.28;;;7.70;99.90;;;;;;5029272;28;20021;-94
2022/02/22 07:07:50;;;;;;;16.67;3.35;;;7.70;99.90;;;;;;5034341;28;20021;-92
2022/02/22 07:10:16;;;;;;;15.93;3.63;;;7.70;99.90;;;;;;5048478;28;20017;-93
2022/02/22 07:12:43;;;;;;;26.35;4.07;;;7.70;99.90;;;;;;5037537;28;20120;-93
2022/02/22 07:15:10;;;;;;;31.95;3.58;;;7.70;99.90;;;;;;5029611;28;20601;-94
2022/02/22 07:17:59;;;;;;;24.67;4.15;;;7.70;99.90;;;;;;5032819;28;20045;-94
2022/02/22 07:20:26;;;;;;;33.15;4.30;;;7.70;99.90;;;;;;5030076;28;20079;-94
2022/02/22 07:22:55;;;;;;;15.90;3.30;;;7.70;99.90;;;;;;5032091;28;20036;-94
2022/02/22 07:25:21;;;;;;;21.85;3.38;;;7.70;99.90;;;;;;5031855;28;20021;-93
2022/02/22 07:27:47;;;;;;;33.55;4.25;;;7.70;99.90;;;;;;5031153;28;20029;-95
2022/02/22 07:30:16;;;;;;;23.98;3.28;;;7.80;99.90;;;;;;5032091;28;20033;-95
2022/02/22 07:32:42;;;;;;;33.15;4.32;;;7.70;99.90;;;;;;5040914;28;20049;-95
2022/02/22 07:35:09;;;;;;;24.15;3.47;;;7.80;99.90;;;;;;5031352;28;20013;-95
2022/02/22 07:37:39;;;;;;;30.88;4.90;;;7.80;99.90;;;;;;5031518;28;20022;-95
2022/02/22 07:40:12;;;;;;;22.70;3.43;;;7.80;99.90;;;;;;5031795;28;20584;-95
2022/02/22 07:42:38;;;;;;;22.30;3.78;;;7.90;99.90;;;;;;5029927;28;20036;-96
2022/02/22 07:45:06;;;;;;;26.60;3.63;;;7.90;99.90;;;;;;5040320;28;20029;-95
2022/02/22 07:47:31;;;;;;;22.48;3.80;;;8.00;99.90;;;;;;5033127;28;20017;-94
2022/02/22 07:49:58;;;;;;;20.23;2.65;;;8.10;99.90;;;;;;5032930;28;20029;-94
2022/02/22 07:52:28;;;;;;;24.63;3.88;;;8.10;99.90;;;;;;5035710;28;20024;-94
2022/02/22 07:54:54;;;;;;;26.88;2.78;;;8.20;99.90;;;;;;5037377;28;20029;-94
2022/02/22 07:57:20;;;;;;;29.67;3.15;;;8.20;99.90;;;;;;5034656;28;20583;-95
2022/02/22 07:59:46;;;;;;;23.30;4.05;;;8.30;99.90;;;;;;5034360;28;20088;-93
2022/02/22 08:02:12;;;;;;;20.95;2.80;;;8.30;99.90;;;;;;5032706;28;20033;-94
2022/02/22 08:04:40;;;;;;;30.00;3.35;;;8.30;99.90;;;;;;5032251;28;20021;-94
2022/02/22 08:07:06;;;;;;;20.60;2.83;;;8.30;99.90;;;;;;5032285;28;20025;-93
2022/02/22 08:09:32;;;;;;;24.50;3.47;;;8.30;99.90;;;;;;5033549;28;20421;-95
2022/02/22 08:11:57;;;;;;;22.88;2.97;;;8.30;99.90;;;;;;5035438;28;20025;-96
2022/02/22 08:14:23;;;;;;;19.27;2.92;;;8.40;99.90;;;;;;5036480;28;20522;-95
2022/02/22 08:16:50;;;;;;;26.45;2.80;;;8.40;99.90;;;;;;5033480;28;20092;-96
2022/02/22 08:19:16;;;;;;;22.67;3.05;;;8.50;99.90;;;;;;5035833;28;20066;-95
2022/02/22 08:21:42;;;;;;;17.40;2.90;;;8.50;99.90;;;;;;5038116;28;20018;-95
2022/02/22 08:24:08;;;;;;;23.20;4.07;;;8.60;99.90;;;;;;5046737;28;20105;-92
2022/02/22 08:26:33;;;;;;;18.55;2.70;;;8.70;99.90;;;;;;5034701;28;20094;-91
2022/02/22 08:28:59;;;;;;;26.02;4.28;;;8.80;99.90;;;;;;5027099;28;20041;-95
2022/02/22 08:31:26;;;;;;;31.17;3.45;;;8.80;99.90;;;;;;5039106;28;20100;-94
2022/02/22 08:33:58;;;;;;;23.02;3.42;;;8.90;99.90;;;;;;5047519;28;20028;-93
2022/02/22 08:36:25;;;;;;;26.75;3.70;;;9.00;99.90;;;;;;5040549;28;20029;-95
2022/02/22 08:38:52;;;;;;;28.55;4.32;;;9.10;99.90;;;;;;5039629;28;20040;-95
2022/02/22 08:41:17;;;;;;;16.50;2.65;;;9.20;99.90;;;;;;5040491;28;20037;-93
2022/02/22 08:43:43;;;;;;;22.30;3.15;;;9.20;99.90;;;;;;5033303;28;20040;-96
2022/02/22 08:46:09;;;;;;;28.80;3.70;;;9.30;99.90;;;;;;5038525;28;20029;-95
2022/02/22 08:48:34;;;;;;;33.88;4.00;;;9.40;99.90;;;;;;5037609;28;20025;-95
2022/02/22 08:51:00;;;;;;;20.00;3.60;;;9.40;99.90;;;;;;5042520;28;20032;-95
2022/02/22 08:53:26;;;;;;;27.33;3.47;;;9.40;99.90;;;;;;5035218;28;20487;-95
2022/02/22 08:55:58;;;;;;;26.98;4.18;;;9.50;99.90;;;;;;5031959;28;20356;-94
2022/02/22 08:58:24;;;;;;;19.50;2.97;;;9.50;99.90;;;;;;5043387;28;20025;-95
2022/02/22 09:00:50;;;;;;;22.98;3.40;;;9.60;99.90;;;;;;5053954;28;20017;-93
2022/02/22 09:03:16;;;;;;;22.77;3.72;;;9.60;99.90;;;;;;5051303;28;20021;-94
2022/02/22 09:05:50;;;;;;;28.95;3.78;;;9.50;99.90;;;;;;5056729;28;20019;-95
2022/02/22 09:08:16;;;;;;;17.80;3.22;;;9.40;99.90;;;;;;5056324;28;20024;-94
2022/02/22 09:10:47;;;;;;;28.98;4.15;;;9.40;99.90;;;;;;5053446;28;20009;-95
2022/02/22 09:13:33;;;;;;;25.08;3.30;;;9.40;99.90;;;;;;5204190;22;20030;-96
2022/02/22 09:48:01;;;;;;;13.20;2.20;;;9.10;99.90;;;;;;4902426;29;20029;-94
2022/02/22 09:50:48;;;;;;;7.88;1.95;;;9.10;99.90;;;;;;5211197;23;20092;-93
2022/02/22 09:53:29;;;;;;;12.70;2.08;;;9.20;99.90;;;;;;4903531;29;20063;-96
2022/02/22 09:55:57;;;;;;;7.95;1.42;;;9.10;99.90;;;;;;4896293;29;20033;-92
2022/02/22 09:58:23;;;;;;;10.93;1.80;;;9.20;99.90;;;;;;4904892;29;20025;-95
2022/02/22 10:01:00;;;;;;;13.32;2.05;;;9.30;99.90;;;;;;4891355;29;20082;-94
2022/02/22 10:03:29;;;;;;;9.13;1.55;;;9.40;99.90;;;;;;4888351;29;20041;-94
2022/02/22 10:05:58;;;;;;;12.75;1.27;;;9.40;99.90;;;;;;4888589;29;20084;-94
2022/02/22 10:08:38;;;;;;;3.17;0.63;;;9.40;99.90;;;;;;4886758;29;20543;-93
2022/02/22 10:11:10;;;;;;;11.07;1.47;;;9.40;99.90;;;;;;4877185;29;20041;-95
2022/02/22 10:13:48;;;;;;;4.90;1.10;;;9.30;99.90;;;;;;4881165;29;20280;-95
2022/02/22 10:16:15;;;;;;;8.32;0.95;;;9.30;99.90;;;;;;4887841;29;20060;-94
2022/02/22 10:18:50;;;;;;;7.60;1.20;;;9.30;99.90;;;;;;4885305;29;20025;-95
2022/02/22 10:21:18;;;;;;;9.82;1.30;;;9.30;99.90;;;;;;4877477;29;20048;-94
2022/02/22 10:23:47;;;;;;;5.47;0.95;;;9.40;99.90;;;;;;4879463;29;20053;-96
2022/02/22 10:26:24;;;;;;;9.38;1.27;;;9.50;99.90;;;;;;4877496;29;20048;-93
2022/02/22 10:28:50;;;;;;;8.73;1.60;;;9.60;99.90;;;;;;4879645;29;20029;-95
2022/02/22 10:31:34;;;;;;;3.70;1.00;;;9.70;99.90;;;;;;4882391;29;20060;-93
2022/02/22 10:34:00;;;;;;;3.70;0.47;;;9.80;99.90;;;;;;4883665;29;20030;-93
2022/02/22 10:36:37;;;;;;;1.92;0.65;;;9.80;99.90;;;;;;4883909;29;20054;-93
2022/02/22 10:39:05;;;;;;;4.70;0.70;;;9.80;99.90;;;;;;4868101;29;20029;-94
2022/02/22 10:41:38;;;;;;;6.80;1.63;;;9.60;99.90;;;;;;4882446;29;20037;-92
2022/02/22 10:44:08;;;;;;;2.10;0.60;;;9.60;99.90;;;;;;4884108;29;20030;-93
2022/02/22 10:46:37;;;;;;;2.22;0.40;;;9.40;99.90;;;;;;4882369;29;20014;-94
2022/02/22 10:49:13;;;;;;;2.65;0.20;;;9.30;99.90;;;;;;4882408;29;20014;-95
2022/02/22 10:51:45;;;;;;;2.70;0.50;;;9.30;99.90;;;;;;4880240;29;20093;-95
2022/02/22 10:54:25;;;;;;;4.22;0.77;;;9.20;99.90;;;;;;4878741;29;20029;-96
2022/02/22 10:56:53;;;;;;;0.30;0.25;;;9.20;99.90;;;;;;4878260;29;20029;-96
2022/02/22 10:59:21;;;;;;;2.83;0.45;;;9.20;99.90;;;;;;4880249;29;20038;-93
2022/02/22 11:01:51;;;;;;;5.05;0.47;;;9.30;99.90;;;;;;4878801;29;20041;-94
2022/02/22 11:04:17;;;;;;;3.67;0.40;;;9.40;99.90;;;;;;4887411;29;20018;-94
2022/02/22 11:06:42;;;;;;;2.15;0.50;;;9.50;99.90;;;;;;4887711;29;20052;-93
2022/02/22 11:09:12;;;;;;;4.18;0.40;;;9.60;99.90;;;;;;4887461;29;20013;-92
2022/02/22 11:12:12;;;;;;;4.60;0.63;;;9.70;99.90;;;;;;4887226;29;20029;-93
2022/02/22 11:14:38;;;;;;;2.13;0.40;;;9.90;99.90;;;;;;4894286;29;20045;-94
2022/02/22 11:17:25;;;;;;;3.90;1.17;;;10.10;99.90;;;;;;4872300;29;20294;-95
2022/02/22 11:19:52;;;;;;;0.93;0.22;;;10.30;99.90;;;;;;4874975;29;20022;-93
2022/02/22 11:22:23;;;;;;;5.63;0.68;;;10.20;99.90;;;;;;4871152;29;20034;-93
2022/02/22 11:25:00;;;;;;;2.13;0.40;;;10.10;99.90;;;;;;4866397;29;20026;-94
2022/02/22 11:27:27;;;;;;;3.25;0.40;;;10.10;99.90;;;;;;4866367;29;20034;-94
2022/02/22 11:30:08;;;;;;;5.72;0.52;;;10.20;99.90;;;;;;4866762;29;20041;-93
2022/02/22 11:32:36;;;;;;;2.05;0.28;;;10.30;99.90;;;;;;4865780;29;20045;-95
2022/02/22 11:35:17;;;;;;;0.95;0.28;;;10.40;99.90;;;;;;4868078;29;20022;-94
2022/02/22 11:37:46;;;;;;;1.38;0.50;;;10.60;99.90;;;;;;4867063;29;20033;-95
2022/02/22 11:40:31;;;;;;;1.77;0.45;;;10.60;99.90;;;;;;4869773;29;20033;-94
2022/02/22 11:43:12;;;;;;;2.95;0.70;;;10.60;99.90;;;;;;4867871;29;20488;-95
2022/02/22 11:45:38;;;;;;;;;;;10.70;99.90;;;;;;4867012;29;20045;-95
2022/02/22 11:48:21;;;;;;;8.68;0.95;;;10.90;99.90;;;;;;4865139;29;19908;-93
2022/02/22 11:50:50;;;;;;;6.82;1.10;;;11.10;99.90;;;;;;4865097;29;20058;-94
2022/02/22 11:53:22;;;;;;;4.07;0.90;;;11.20;99.90;;;;;;4864570;29;20029;-95
2022/02/22 11:55:51;;;;;;;2.83;0.80;;;11.30;99.90;;;;;;4865560;29;20034;-94
2022/02/22 11:58:22;;;;;;;4.80;1.10;;;11.30;99.90;;;;;;4863845;29;20033;-94
2022/02/22 12:00:54;;;;;;;5.85;0.70;;;11.20;99.90;;;;;;4865558;29;20036;-94
2022/02/22 12:03:24;;;;;;;9.38;1.27;;;11.30;99.90;;;;;;4863931;29;20041;-94
2022/02/22 12:06:00;;;;;;;5.95;1.23;;;11.50;99.90;;;;;;4865363;29;20049;-94
2022/02/22 12:08:38;;;;;;;12.90;2.15;;;11.80;99.90;;;;;;4864381;29;20039;-95
2022/02/22 12:11:14;;;;;;;8.27;1.48;;;11.80;99.90;;;;;;4865928;29;20025;-94
2022/02/22 12:14:00;;;;;;;7.82;1.65;;;11.90;99.90;;;;;;4866278;29;20025;-94
2022/02/22 12:16:28;;;;;;;10.13;1.40;;;11.90;99.90;;;;;;4865391;29;20053;-95
2022/02/22 12:18:57;;;;;;;11.50;1.73;;;11.80;99.90;;;;;;4864752;29;20064;-95
2022/02/22 12:21:25;;;;;;;7.20;1.08;;;11.70;99.90;;;;;;4864616;29;20038;-94
2022/02/22 12:23:51;;;;;;;12.82;1.27;;;11.50;99.90;;;;;;4864179;29;20063;-94
2022/02/22 12:26:20;;;;;;;7.32;1.40;;;11.30;99.90;;;;;;4866215;29;20057;-94
2022/02/22 12:28:47;;;;;;;6.47;0.98;;;11.40;99.90;;;;;;4866349;29;20197;-95
2022/02/22 12:31:24;;;;;;;8.68;1.25;;;11.50;99.90;;;;;;4883500;29;20041;-94
2022/02/22 12:33:50;;;;;;;6.10;0.90;;;11.40;99.90;;;;;;4884137;29;20017;-95
2022/02/22 12:36:18;;;;;;;9.60;1.40;;;11.40;99.90;;;;;;4876680;29;20574;-95
2022/02/22 12:38:44;;;;;;;8.77;1.40;;;11.20;99.90;;;;;;4875578;29;20029;-95
2022/02/22 12:41:15;;;;;;;13.63;1.65;;;11.30;99.90;;;;;;4872299;29;20033;-92
2022/02/22 12:43:49;;;;;;;7.50;1.42;;;11.40;99.90;;;;;;4871158;29;20041;-95
2022/02/22 12:46:17;;;;;;;6.15;0.88;;;11.20;99.90;;;;;;4868261;29;20089;-96
2022/02/22 12:48:43;;;;;;;7.72;1.40;;;11.30;99.90;;;;;;4873678;29;20116;-95
2022/02/22 12:51:17;;;;;;;6.00;1.05;;;11.40;99.90;;;;;;4876856;29;20148;-94
2022/02/22 12:53:42;;;;;;;4.53;1.10;;;11.40;99.90;;;;;;4867866;29;20122;-94
2022/02/22 12:56:08;;;;;;;9.45;1.88;;;11.40;99.90;;;;;;4869741;29;20102;-93
2022/02/22 12:58:37;;;;;;;6.70;1.67;;;11.70;99.90;;;;;;4871285;29;20036;-94
2022/02/22 13:01:17;;;;;;;8.27;1.80;;;12.00;99.90;;;;;;4870930;29;20032;-94
2022/02/22 13:03:47;;;;;;;8.55;1.48;;;12.40;99.90;;;;;;4869050;29;20046;-95
2022/02/22 13:06:14;;;;;;;8.50;1.77;;;12.70;98.60;;;;;;4868002;29;20033;-95
2022/02/22 13:08:41;;;;;;;9.68;1.92;;;13.00;97.80;;;;;;4867942;29;20037;-94
2022/02/22 13:11:07;;;;;;;9.25;1.70;;;13.20;96.60;;;;;;4870275;29;20487;-95
2022/02/22 13:13:33;;;;;;;12.73;2.88;;;13.30;96.10;;;;;;4867333;29;20041;-95
2022/02/22 13:16:13;;;;;;;16.15;2.40;;;13.30;95.10;;;;;;4866912;29;20056;-94
2022/02/22 13:18:53;;;;;;;8.70;1.73;;;13.30;94.20;;;;;;4865864;29;20037;-95
2022/02/22 13:21:19;;;;;;;6.97;1.42;;;13.10;93.70;;;;;;4871002;29;20066;-95
2022/02/22 13:23:47;;;;;;;17.95;2.40;;;12.70;94.30;;;;;;4873809;29;20511;-94